LKKL weather

Kladno Airport
Kladno, Central Bohemian Region, Czechia

Public forecast

Using degrees Celsius for public forecast. Weather courtesy of forecast.io.

METAR (pilot weather report)

Closest report is Václav Havel Airport Prague, 6.6 nm (12.2 km) E. Retrieved 2019/07/24 06:30 UTC (0 seconds ago):

LKPR 240630Z VRB02KT CAVOK 22/15 Q1020 NOSIG

TAF (pilot weather forecast)

Closest forecast is Václav Havel Airport Prague, 6.6 nm (12.2 km) E. Retrieved 2019/07/24 06:11 UTC (15 minutes ago):

TAF LKPR 240500Z 2406/2512 VRB02KT CAVOK BECMG 2409/2412 02007KT TEMPO 2418/2502 08007KT